createdAt,value
2022-10-13T00:00:42.779Z,9.32
2022-10-13T00:03:09.936Z,9.50
2022-10-13T00:05:40.797Z,10.18
2022-10-13T00:08:07.895Z,9.90
2022-10-13T00:10:36.807Z,10.77
2022-10-13T00:13:04.495Z,9.60
2022-10-13T00:15:31.762Z,8.98
2022-10-13T00:17:59.252Z,9.00
2022-10-13T00:20:26.499Z,8.45
2022-10-13T00:22:53.594Z,8.65
2022-10-13T00:25:20.645Z,8.88
2022-10-13T00:27:48.024Z,8.88
2022-10-13T00:30:15.373Z,9.23
2022-10-13T00:32:42.710Z,8.63
2022-10-13T00:35:10.365Z,8.40
2022-10-13T00:37:37.696Z,8.90
2022-10-13T00:40:04.989Z,8.05
2022-10-13T00:42:33.295Z,9.23
2022-10-13T00:45:08.458Z,8.52
2022-10-13T00:47:37.695Z,10.07
2022-10-13T00:50:05.901Z,9.00
2022-10-13T00:52:33.815Z,9.35
2022-10-13T00:55:03.065Z,8.95
2022-10-13T00:57:30.520Z,8.43
2022-10-13T00:59:58.528Z,7.85
2022-10-13T01:02:28.367Z,7.78
2022-10-13T01:04:57.877Z,8.32
2022-10-13T01:07:25.445Z,8.80
2022-10-13T01:09:52.631Z,8.98
2022-10-13T01:12:55.312Z,8.48
2022-10-13T01:15:22.646Z,8.13
2022-10-13T01:18:12.263Z,7.28
2022-10-13T01:21:00.513Z,8.52
2022-10-13T01:23:46.529Z,7.57
2022-10-13T01:26:29.206Z,7.45
2022-10-13T01:29:14.104Z,7.32
2022-10-13T01:31:50.638Z,8.35
2022-10-13T01:34:30.471Z,7.53
2022-10-13T01:36:57.543Z,6.93
2022-10-13T01:39:38.039Z,7.10
2022-10-13T01:42:12.909Z,7.63
2022-10-13T01:44:42.360Z,7.90
2022-10-13T01:47:11.164Z,6.38
2022-10-13T01:49:39.299Z,6.38
2022-10-13T01:52:08.262Z,7.20
2022-10-13T01:54:35.533Z,6.65
2022-10-13T01:57:02.887Z,7.10
2022-10-13T01:59:36.067Z,6.38
2022-10-13T02:02:18.201Z,6.72
2022-10-13T02:05:04.065Z,6.80
2022-10-13T02:07:50.136Z,6.68
2022-10-13T02:10:23.506Z,6.72
2022-10-13T02:12:52.690Z,7.28
2022-10-13T02:15:24.238Z,6.55
2022-10-13T02:17:53.096Z,7.13
2022-10-13T02:20:21.701Z,7.57
2022-10-13T02:22:52.041Z,7.43
2022-10-13T02:25:21.475Z,7.43
2022-10-13T02:27:48.573Z,7.80
2022-10-13T02:30:26.197Z,7.38
2022-10-13T02:32:54.608Z,7.80
2022-10-13T02:35:22.112Z,8.30
2022-10-13T02:37:49.542Z,7.63
2022-10-13T02:40:16.766Z,7.18
2022-10-13T02:42:43.854Z,7.95
2022-10-13T02:45:12.350Z,8.05
2022-10-13T02:47:39.820Z,7.13
2022-10-13T02:50:07.319Z,5.97
2022-10-13T02:52:34.477Z,7.55
2022-10-13T02:55:01.637Z,7.85
2022-10-13T02:57:29.493Z,7.53
2022-10-13T02:59:56.591Z,7.88
2022-10-13T03:02:24.118Z,7.88
2022-10-13T03:04:51.777Z,8.27
2022-10-13T03:07:18.937Z,7.55
2022-10-13T03:09:46.448Z,8.05
2022-10-13T03:12:13.658Z,8.70
2022-10-13T03:14:40.751Z,7.78
2022-10-13T03:17:13.178Z,8.30
2022-10-13T03:19:40.546Z,8.30
2022-10-13T03:22:07.639Z,8.35
2022-10-13T03:24:36.032Z,7.40
2022-10-13T03:27:03.897Z,8.00
2022-10-13T03:29:31.343Z,7.82
2022-10-13T03:32:00.774Z,8.85
2022-10-13T03:34:29.116Z,8.30
2022-10-13T03:36:56.218Z,8.82
2022-10-13T03:39:23.394Z,7.85
2022-10-13T03:41:51.543Z,8.07
2022-10-13T03:44:18.641Z,9.45
2022-10-13T03:46:45.904Z,8.48
2022-10-13T03:49:13.029Z,8.93
2022-10-13T03:51:40.603Z,8.57
2022-10-13T03:54:07.786Z,8.65
2022-10-13T03:56:35.833Z,8.60
2022-10-13T03:59:05.114Z,8.93
2022-10-13T04:01:33.501Z,8.02
2022-10-13T04:04:04.356Z,8.50
2022-10-13T04:06:31.855Z,8.77
2022-10-13T04:08:59.301Z,7.13
2022-10-13T04:11:26.481Z,9.25
2022-10-13T04:13:53.654Z,8.13
2022-10-13T04:16:25.544Z,8.85
2022-10-13T04:18:57.444Z,7.97
2022-10-13T04:21:24.786Z,7.85
2022-10-13T04:23:51.958Z,8.20
2022-10-13T04:26:25.884Z,7.50
2022-10-13T04:28:54.933Z,7.82
2022-10-13T04:31:23.169Z,7.28
2022-10-13T04:33:50.717Z,6.32
2022-10-13T04:36:19.217Z,7.65
2022-10-13T04:38:46.484Z,7.63
2022-10-13T04:41:14.277Z,6.50
2022-10-13T04:43:41.671Z,7.78
2022-10-13T04:46:16.264Z,6.53
2022-10-13T04:48:43.502Z,7.18
2022-10-13T04:51:15.346Z,6.30
2022-10-13T04:53:42.695Z,6.57
2022-10-13T04:56:15.468Z,7.95
2022-10-13T04:58:43.983Z,6.57
2022-10-13T05:01:21.835Z,7.78
2022-10-13T05:03:56.624Z,7.53
2022-10-13T05:06:30.283Z,8.07
2022-10-13T05:08:57.638Z,5.68
2022-10-13T05:11:26.765Z,8.20
2022-10-13T05:13:56.520Z,8.95
2022-10-13T05:16:24.408Z,8.55
2022-10-13T05:18:52.762Z,8.35
2022-10-13T05:21:24.654Z,8.35
2022-10-13T05:23:54.338Z,9.30
2022-10-13T05:26:22.307Z,9.55
2022-10-13T05:28:49.634Z,10.80
2022-10-13T05:31:23.526Z,10.20
2022-10-13T05:33:52.009Z,9.57
2022-10-13T05:36:23.244Z,10.63
2022-10-13T05:41:17.531Z,10.60
2022-10-13T05:43:45.908Z,11.30
2022-10-13T05:46:13.074Z,11.52
2022-10-13T05:48:40.432Z,11.43
2022-10-13T05:51:11.583Z,11.65
2022-10-13T05:53:39.608Z,12.15
2022-10-13T05:56:13.925Z,11.98
2022-10-13T05:58:49.418Z,13.43
2022-10-13T06:01:18.003Z,10.88
2022-10-13T06:03:47.823Z,11.95
2022-10-13T06:06:15.448Z,12.30
2022-10-13T06:08:42.940Z,13.18
2022-10-13T06:11:10.445Z,13.50
2022-10-13T06:13:37.654Z,12.13
2022-10-13T06:16:04.885Z,12.95
2022-10-13T06:18:32.037Z,11.35
2022-10-13T06:20:59.509Z,12.32
2022-10-13T06:23:26.849Z,11.27
2022-10-13T06:25:55.202Z,10.45
2022-10-13T06:28:22.594Z,11.68
2022-10-13T06:30:56.091Z,11.70
2022-10-13T06:33:26.329Z,10.43
2022-10-13T06:35:53.923Z,10.70
2022-10-13T06:38:21.359Z,12.00
2022-10-13T06:40:49.308Z,11.88
2022-10-13T06:43:16.483Z,12.38
2022-10-13T06:45:43.663Z,12.90
2022-10-13T06:48:11.071Z,11.70
2022-10-13T06:50:42.675Z,12.52
2022-10-13T06:53:10.078Z,12.13
2022-10-13T06:55:37.171Z,6.60
2022-10-13T06:58:04.307Z,10.73
2022-10-13T07:00:31.664Z,12.45
2022-10-13T07:02:58.896Z,12.20
2022-10-13T07:05:27.255Z,11.10
2022-10-13T07:07:54.358Z,9.20
2022-10-13T07:10:22.938Z,11.40
2022-10-13T07:12:50.288Z,11.32
2022-10-13T07:15:17.561Z,11.98
2022-10-13T07:17:45.484Z,11.85
2022-10-13T07:20:12.912Z,12.55
2022-10-13T07:22:41.192Z,10.20
2022-10-13T07:25:08.617Z,11.88
2022-10-13T07:27:38.305Z,11.07
2022-10-13T07:30:05.966Z,11.07
2022-10-13T07:32:33.683Z,12.15
2022-10-13T07:35:01.943Z,11.15
2022-10-13T07:37:29.118Z,11.63
2022-10-13T07:39:56.389Z,10.57
2022-10-13T07:42:23.797Z,10.55
2022-10-13T07:44:52.929Z,9.05
2022-10-13T07:47:21.565Z,9.23
2022-10-13T07:49:49.200Z,9.00
2022-10-13T07:52:16.542Z,9.02
2022-10-13T07:54:43.924Z,9.07
2022-10-13T07:57:11.301Z,10.57
2022-10-13T07:59:38.413Z,11.07
2022-10-13T08:02:06.584Z,11.02
2022-10-13T08:04:34.730Z,12.02
2022-10-13T08:07:02.459Z,12.38
2022-10-13T08:09:30.871Z,11.63
2022-10-13T08:12:00.915Z,11.93
2022-10-13T08:14:29.226Z,11.65
2022-10-13T08:16:56.910Z,10.90
2022-10-13T08:19:26.387Z,11.35
2022-10-13T08:21:58.758Z,11.10
2022-10-13T08:24:26.734Z,11.70
2022-10-13T08:26:54.351Z,11.05
2022-10-13T08:29:23.014Z,10.55
2022-10-13T08:31:51.736Z,11.40
2022-10-13T08:34:19.207Z,9.80
2022-10-13T08:36:47.274Z,10.23
2022-10-13T08:39:14.386Z,9.98
2022-10-13T08:41:46.390Z,10.05
2022-10-13T08:45:05.955Z,10.23
2022-10-13T08:47:17.709Z,10.25
2022-10-13T08:49:51.257Z,9.52
2022-10-13T08:52:24.445Z,9.57
2022-10-13T08:54:51.769Z,10.18
2022-10-13T08:57:19.703Z,9.15
2022-10-13T08:59:47.454Z,9.35
2022-10-13T09:02:31.246Z,9.95
2022-10-13T09:05:01.905Z,10.23
2022-10-13T09:07:30.194Z,10.00
2022-10-13T09:09:57.302Z,11.00
2022-10-13T09:12:25.711Z,10.45
2022-10-13T09:15:02.961Z,11.15
2022-10-13T09:17:31.450Z,10.07
2022-10-13T09:20:05.384Z,10.40
2022-10-13T09:22:37.010Z,9.95
2022-10-13T09:25:07.438Z,10.48
2022-10-13T09:27:54.924Z,10.57
2022-10-13T09:30:26.359Z,11.20
2022-10-13T09:33:07.317Z,10.40
2022-10-13T09:35:35.086Z,10.43
2022-10-13T09:38:19.926Z,10.43
2022-10-13T09:40:58.261Z,11.02
2022-10-13T09:43:30.327Z,10.98
2022-10-13T09:45:58.443Z,10.88
2022-10-13T09:48:33.821Z,10.55
2022-10-13T09:51:01.356Z,11.98
2022-10-13T09:53:36.769Z,12.15
2022-10-13T09:56:22.209Z,11.73
2022-10-13T09:58:53.542Z,11.18
2022-10-13T10:01:33.493Z,11.25
2022-10-13T10:04:01.942Z,11.85
2022-10-13T10:06:29.227Z,11.60
2022-10-13T10:09:07.317Z,12.30
2022-10-13T10:11:36.381Z,10.43
2022-10-13T10:14:13.923Z,11.77
2022-10-13T10:16:43.881Z,11.38
2022-10-13T10:19:37.334Z,10.88
2022-10-13T10:22:04.711Z,11.68
2022-10-13T10:24:40.659Z,12.27
2022-10-13T10:27:16.808Z,11.05
2022-10-13T10:29:50.421Z,10.43
2022-10-13T10:32:36.644Z,11.13
2022-10-13T10:35:15.197Z,10.77
2022-10-13T10:37:58.637Z,11.15
2022-10-13T10:40:33.063Z,11.32
2022-10-13T10:43:04.113Z,10.80
2022-10-13T10:48:01.253Z,10.45
2022-10-13T10:50:30.081Z,10.48
2022-10-13T10:53:02.260Z,11.00
2022-10-13T10:55:44.362Z,11.13
2022-10-13T10:58:12.550Z,10.68
2022-10-13T11:00:42.462Z,11.18
2022-10-13T11:03:18.714Z,11.10
2022-10-13T11:05:58.351Z,10.98
2022-10-13T11:08:41.036Z,11.43
2022-10-13T11:11:33.578Z,10.90
2022-10-13T11:14:07.740Z,11.35
2022-10-13T11:16:53.807Z,11.00
2022-10-13T11:19:37.681Z,10.35
2022-10-13T11:22:07.158Z,9.43
2022-10-13T11:24:38.812Z,9.77
2022-10-13T11:27:14.863Z,11.38
2022-10-13T11:29:48.972Z,10.45
2022-10-13T11:32:31.227Z,10.07
2022-10-13T11:35:00.081Z,9.85
2022-10-13T11:37:33.048Z,8.68
2022-10-13T11:40:19.424Z,10.20
2022-10-13T11:43:05.132Z,9.80
2022-10-13T11:45:42.652Z,10.23
2022-10-13T11:48:12.546Z,9.27
2022-10-13T11:50:44.325Z,10.30
2022-10-13T11:53:16.461Z,10.00
2022-10-13T11:55:46.394Z,9.93
2022-10-13T11:58:16.114Z,9.68
2022-10-13T12:01:03.256Z,9.75
2022-10-13T12:03:31.925Z,9.07
2022-10-13T12:06:17.502Z,9.80
2022-10-13T12:08:49.226Z,9.80
2022-10-13T12:11:27.523Z,10.65
2022-10-13T12:13:55.321Z,9.77
2022-10-13T12:16:22.639Z,11.48
2022-10-13T12:18:50.126Z,10.25
2022-10-13T12:21:22.390Z,10.48
2022-10-13T12:23:51.158Z,10.88
2022-10-13T12:26:20.292Z,11.15
2022-10-13T12:28:52.719Z,12.60
2022-10-13T12:31:21.823Z,11.73
2022-10-13T12:33:55.044Z,11.82
2022-10-13T12:36:29.962Z,12.43
2022-10-13T12:38:59.903Z,12.48
2022-10-13T12:41:28.377Z,11.45
2022-10-13T12:43:59.971Z,11.32
2022-10-13T12:46:39.790Z,11.55
2022-10-13T12:49:22.741Z,11.20
2022-10-13T12:51:55.186Z,12.40
2022-10-13T12:54:29.821Z,10.45
2022-10-13T12:56:58.981Z,10.20
2022-10-13T12:59:27.110Z,10.25
2022-10-13T13:02:01.784Z,10.63
2022-10-13T13:04:38.031Z,9.35
2022-10-13T13:07:05.930Z,11.68
2022-10-13T13:09:39.165Z,10.25
2022-10-13T13:12:16.303Z,10.23
2022-10-13T13:14:49.425Z,10.70
2022-10-13T13:20:20.450Z,8.27
2022-10-13T13:22:47.918Z,10.77
2022-10-13T13:25:15.804Z,9.02
2022-10-13T13:27:43.108Z,10.38
2022-10-13T13:30:12.256Z,10.18
2022-10-13T13:32:39.572Z,10.02
2022-10-13T13:35:07.073Z,9.30
2022-10-13T13:37:39.704Z,6.47
2022-10-13T13:40:07.526Z,9.75
2022-10-13T13:42:34.670Z,10.52
2022-10-13T13:45:02.855Z,9.23
2022-10-13T13:47:29.928Z,9.73
2022-10-13T13:49:58.650Z,9.55
2022-10-13T13:52:26.101Z,9.70
2022-10-13T13:54:53.654Z,10.43
2022-10-13T13:57:22.159Z,9.80
2022-10-13T13:59:49.814Z,10.68
2022-10-13T14:02:18.947Z,9.30
2022-10-13T14:04:46.274Z,10.13
2022-10-13T14:07:13.804Z,11.45
2022-10-13T14:09:40.909Z,9.45
2022-10-13T14:12:08.241Z,12.10
2022-10-13T14:14:35.513Z,12.13
2022-10-13T14:17:08.727Z,12.30
2022-10-13T14:19:36.169Z,10.82
2022-10-13T14:22:08.503Z,11.25
2022-10-13T14:24:37.219Z,10.50
2022-10-13T14:27:04.569Z,8.75
2022-10-13T14:29:33.812Z,9.95
2022-10-13T14:32:01.126Z,10.02
2022-10-13T14:34:28.333Z,9.52
2022-10-13T14:36:55.694Z,9.82
2022-10-13T14:39:22.797Z,10.00
2022-10-13T14:41:49.949Z,10.45
2022-10-13T14:44:17.100Z,9.75
2022-10-13T14:46:44.441Z,8.48
2022-10-13T14:49:11.988Z,9.82
2022-10-13T14:51:39.707Z,9.88
2022-10-13T14:54:09.051Z,9.45
2022-10-13T14:56:36.390Z,8.20
2022-10-13T14:59:04.905Z,10.07
2022-10-13T15:01:33.463Z,9.13
2022-10-13T15:04:01.390Z,6.97
2022-10-13T15:06:28.863Z,6.60
2022-10-13T15:08:56.081Z,5.88
2022-10-13T15:11:25.812Z,7.35
2022-10-13T15:13:53.312Z,4.72
2022-10-13T15:16:27.972Z,4.60
2022-10-13T15:18:55.787Z,3.75
2022-10-13T15:21:23.358Z,3.90
2022-10-13T15:23:50.727Z,4.50
2022-10-13T15:26:24.474Z,4.80
2022-10-13T15:28:52.639Z,5.13
2022-10-13T15:31:20.762Z,4.65
2022-10-13T15:33:51.588Z,4.60
2022-10-13T15:36:20.690Z,4.68
2022-10-13T15:38:48.510Z,4.43
2022-10-13T15:41:16.215Z,4.55
2022-10-13T15:43:43.755Z,4.85
2022-10-13T15:46:12.580Z,4.95
2022-10-13T15:48:40.237Z,5.00
2022-10-13T15:51:10.315Z,4.00
2022-10-13T15:53:40.152Z,3.70
2022-10-13T15:56:07.897Z,3.03
2022-10-13T15:58:35.846Z,3.35
2022-10-13T16:01:07.425Z,3.05
2022-10-13T16:03:34.632Z,3.00
2022-10-13T16:06:04.212Z,2.60
2022-10-13T16:08:31.653Z,3.00
2022-10-13T16:10:58.764Z,3.05
2022-10-13T16:13:26.178Z,2.28
2022-10-13T16:15:59.950Z,1.90
2022-10-13T16:18:34.390Z,1.90
2022-10-13T16:21:23.956Z,1.92
2022-10-13T16:23:51.478Z,1.92
2022-10-13T16:26:18.891Z,1.80
2022-10-13T16:28:47.121Z,1.95
2022-10-13T16:31:17.171Z,2.10
2022-10-13T16:33:45.034Z,2.20
2022-10-13T16:36:13.681Z,2.13
2022-10-13T16:38:40.951Z,2.40
2022-10-13T16:41:09.486Z,1.55
2022-10-13T16:43:36.913Z,1.40
2022-10-13T16:46:05.252Z,1.70
2022-10-13T16:48:33.475Z,1.67
2022-10-13T16:51:07.691Z,1.52
2022-10-13T16:53:35.176Z,1.50
2022-10-13T16:56:03.707Z,1.40
2022-10-13T16:58:31.058Z,1.50
2022-10-13T17:01:11.698Z,1.48
2022-10-13T17:03:40.594Z,1.25
2022-10-13T17:06:07.910Z,1.40
2022-10-13T17:08:35.157Z,1.58
2022-10-13T17:11:02.703Z,1.52
2022-10-13T17:13:31.244Z,1.60
2022-10-13T17:15:58.675Z,1.70
2022-10-13T17:18:28.307Z,1.48
2022-10-13T17:20:59.815Z,1.60
2022-10-13T17:23:27.779Z,1.70
2022-10-13T17:25:55.261Z,1.65
2022-10-13T17:28:24.150Z,1.80
2022-10-13T17:31:10.280Z,2.00
2022-10-13T17:33:39.172Z,2.28
2022-10-13T17:36:09.052Z,2.55
2022-10-13T17:38:36.169Z,2.47
2022-10-13T17:41:04.964Z,2.13
2022-10-13T17:43:34.470Z,2.20
2022-10-13T17:46:34.667Z,2.45
2022-10-13T17:48:58.803Z,2.40
2022-10-13T17:51:28.407Z,2.30
2022-10-13T17:53:55.513Z,2.47
2022-10-13T17:56:25.690Z,2.75
2022-10-13T17:58:53.807Z,2.20
2022-10-13T18:01:23.173Z,2.58
2022-10-13T18:03:55.471Z,2.75
2022-10-13T18:06:24.691Z,2.80
2022-10-13T18:08:51.852Z,2.60
2022-10-13T18:11:20.501Z,3.03
2022-10-13T18:13:51.135Z,3.53
2022-10-13T18:16:22.606Z,4.38
2022-10-13T18:18:50.563Z,4.85
2022-10-13T18:21:28.501Z,6.25
2022-10-13T18:23:59.997Z,5.28
2022-10-13T18:26:27.873Z,4.70
2022-10-13T18:28:56.056Z,5.15
2022-10-13T18:31:28.022Z,7.18
2022-10-13T18:33:58.842Z,8.70
2022-10-13T18:36:28.256Z,6.88
2022-10-13T18:38:56.630Z,5.20
2022-10-13T18:41:25.270Z,5.13
2022-10-13T18:43:52.854Z,5.30
2022-10-13T18:46:20.352Z,5.90
2022-10-13T18:48:47.847Z,5.40
2022-10-13T18:51:16.255Z,5.55
2022-10-13T18:53:44.549Z,4.85
2022-10-13T18:56:16.115Z,4.78
2022-10-13T18:58:43.513Z,5.25
2022-10-13T19:01:12.362Z,6.28
2022-10-13T19:03:41.488Z,6.28
2022-10-13T19:06:10.325Z,6.88
2022-10-13T19:08:37.670Z,8.80
2022-10-13T19:11:15.073Z,9.95
2022-10-13T19:13:44.157Z,8.90
2022-10-13T19:16:13.115Z,9.38
2022-10-13T19:18:40.675Z,9.77
2022-10-13T19:21:07.938Z,8.07
2022-10-13T19:23:35.142Z,8.63
2022-10-13T19:26:15.273Z,8.30
2022-10-13T19:28:44.117Z,7.93
2022-10-13T19:31:15.968Z,7.78
2022-10-13T19:33:44.954Z,8.18
2022-10-13T19:36:14.484Z,7.00
2022-10-13T19:38:41.854Z,8.10
2022-10-13T19:41:09.304Z,7.50
2022-10-13T19:43:36.566Z,6.85
2022-10-13T19:46:06.358Z,7.93
2022-10-13T19:48:33.745Z,8.43
2022-10-13T19:51:01.504Z,8.50
2022-10-13T19:53:28.822Z,7.78
2022-10-13T19:55:56.244Z,7.97
2022-10-13T19:58:23.461Z,8.32
2022-10-13T20:00:50.685Z,8.23
2022-10-13T20:03:18.241Z,8.07
2022-10-13T20:05:45.458Z,9.45
2022-10-13T20:08:12.975Z,9.82
2022-10-13T20:10:41.441Z,10.52
2022-10-13T20:13:09.138Z,8.13
2022-10-13T20:15:40.749Z,10.07
2022-10-13T20:18:13.008Z,10.70
2022-10-13T20:20:40.843Z,9.68
2022-10-13T20:23:08.176Z,10.13
2022-10-13T20:25:40.799Z,9.80
2022-10-13T20:28:08.234Z,12.20
2022-10-13T20:30:35.356Z,13.05
2022-10-13T20:33:02.970Z,11.00
2022-10-13T20:35:30.546Z,13.32
2022-10-13T20:37:57.910Z,13.13
2022-10-13T20:40:25.254Z,13.63
2022-10-13T20:42:53.018Z,12.77
2022-10-13T20:45:20.205Z,11.10
2022-10-13T20:47:48.899Z,12.30
2022-10-13T20:50:17.065Z,11.80
2022-10-13T20:52:44.505Z,11.85
2022-10-13T20:55:11.624Z,11.75
2022-10-13T20:57:39.049Z,11.57
2022-10-13T21:00:06.674Z,11.80
2022-10-13T21:02:33.924Z,11.50
2022-10-13T21:05:01.214Z,11.90
2022-10-13T21:07:28.534Z,10.90
2022-10-13T21:09:55.693Z,12.05
2022-10-13T21:12:22.775Z,12.20
2022-10-13T21:14:50.156Z,12.55
2022-10-13T21:17:17.209Z,12.07
2022-10-13T21:19:44.537Z,14.05
2022-10-13T21:22:11.696Z,12.60
2022-10-13T21:24:38.960Z,14.82
2022-10-13T21:27:06.326Z,14.38
2022-10-13T21:29:33.737Z,14.07
2022-10-13T21:32:00.971Z,14.85
2022-10-13T21:34:28.133Z,13.95
2022-10-13T21:36:55.398Z,14.68
2022-10-13T21:39:22.565Z,15.60
2022-10-13T21:41:49.807Z,14.90
2022-10-13T21:44:17.034Z,15.00
2022-10-13T21:46:44.179Z,15.60
2022-10-13T21:49:11.353Z,25.33
2022-10-13T21:51:39.956Z,20.60
2022-10-13T21:54:11.537Z,14.02
2022-10-13T21:56:39.463Z,14.43
2022-10-13T21:59:07.547Z,14.05
2022-10-13T22:01:35.163Z,15.02
2022-10-13T22:04:03.356Z,18.83
2022-10-13T22:06:32.179Z,16.95
2022-10-13T22:09:00.470Z,18.10
2022-10-13T22:11:28.635Z,18.35
2022-10-13T22:13:59.586Z,16.92
2022-10-13T22:16:35.465Z,19.85
2022-10-13T22:19:04.938Z,23.23
2022-10-13T22:21:34.687Z,24.77
2022-10-13T22:24:03.235Z,26.65
2022-10-13T22:26:33.598Z,26.33
2022-10-13T22:29:01.616Z,26.53
2022-10-13T22:31:30.744Z,26.92
2022-10-13T22:33:58.053Z,25.85
2022-10-13T22:36:26.098Z,27.98
2022-10-13T22:38:59.695Z,30.42
2022-10-13T22:41:26.985Z,29.10
2022-10-13T22:43:55.549Z,30.13
2022-10-13T22:46:24.499Z,29.70
2022-10-13T22:48:51.891Z,26.55
2022-10-13T22:51:20.613Z,26.63
2022-10-13T22:53:48.166Z,28.35
2022-10-13T22:56:19.502Z,26.63
2022-10-13T22:58:50.592Z,29.15
2022-10-13T23:01:18.351Z,27.98
2022-10-13T23:03:55.794Z,26.77
2022-10-13T23:06:24.276Z,27.55
2022-10-13T23:08:51.628Z,27.77
2022-10-13T23:11:19.250Z,29.75
2022-10-13T23:13:47.818Z,27.55
2022-10-13T23:16:16.650Z,28.35
2022-10-13T23:18:44.024Z,28.02
2022-10-13T23:21:12.640Z,29.17
2022-10-13T23:23:39.796Z,28.65
2022-10-13T23:26:08.209Z,28.15
2022-10-13T23:28:35.771Z,27.10
2022-10-13T23:31:04.841Z,29.63
2022-10-13T23:33:32.186Z,28.63
2022-10-13T23:36:01.379Z,28.85
2022-10-13T23:38:29.168Z,27.70
2022-10-13T23:40:56.980Z,28.45
2022-10-13T23:43:24.129Z,30.15
2022-10-13T23:45:51.483Z,31.00
2022-10-13T23:48:18.574Z,30.70
2022-10-13T23:50:46.960Z,31.77
2022-10-13T23:53:15.093Z,32.63
2022-10-13T23:55:42.190Z,33.72
2022-10-13T23:58:09.356Z,31.30
